sensor_id;sensor_type;location;lat;lon;timestamp;P1;durP1;ratioP1;P2;durP2;ratioP2
3052;SDS011;1536;51.098;6.414;2023-05-10T00:01:19;11.93;;;10.70;;
3052;SDS011;1536;51.098;6.414;2023-05-10T00:03:45;11.87;;;10.53;;
3052;SDS011;1536;51.098;6.414;2023-05-10T00:06:13;13.87;;;11.90;;
3052;SDS011;1536;51.098;6.414;2023-05-10T00:08:41;12.77;;;11.10;;
3052;SDS011;1536;51.098;6.414;2023-05-10T00:11:08;11.73;;;10.33;;
3052;SDS011;1536;51.098;6.414;2023-05-10T00:13:35;11.17;;;9.97;;
3052;SDS011;1536;51.098;6.414;2023-05-10T00:16:01;12.80;;;10.60;;
3052;SDS011;1536;51.098;6.414;2023-05-10T00:18:28;12.83;;;10.07;;
3052;SDS011;1536;51.098;6.414;2023-05-10T00:20:55;12.03;;;10.43;;
3052;SDS011;1536;51.098;6.414;2023-05-10T00:23:21;12.70;;;9.80;;
3052;SDS011;1536;51.098;6.414;2023-05-10T00:25:49;11.20;;;9.83;;
3052;SDS011;1536;51.098;6.414;2023-05-10T00:28:16;11.13;;;9.40;;
3052;SDS011;1536;51.098;6.414;2023-05-10T00:30:43;16.50;;;10.77;;
3052;SDS011;1536;51.098;6.414;2023-05-10T00:33:09;18.30;;;9.77;;
3052;SDS011;1536;51.098;6.414;2023-05-10T00:35:37;11.70;;;9.57;;
3052;SDS011;1536;51.098;6.414;2023-05-10T00:38:04;11.30;;;8.57;;
3052;SDS011;1536;51.098;6.414;2023-05-10T00:40:30;12.67;;;9.10;;
3052;SDS011;1536;51.098;6.414;2023-05-10T00:42:58;8.10;;;7.30;;
3052;SDS011;1536;51.098;6.414;2023-05-10T00:45:26;14.70;;;8.77;;
3052;SDS011;1536;51.098;6.414;2023-05-10T00:47:53;9.17;;;7.80;;
3052;SDS011;1536;51.098;6.414;2023-05-10T00:50:20;9.00;;;7.67;;
3052;SDS011;1536;51.098;6.414;2023-05-10T00:52:47;7.57;;;6.63;;
3052;SDS011;1536;51.098;6.414;2023-05-10T00:55:15;10.63;;;8.10;;
3052;SDS011;1536;51.098;6.414;2023-05-10T00:57:42;9.07;;;7.17;;
3052;SDS011;1536;51.098;6.414;2023-05-10T01:00:11;10.60;;;6.90;;
3052;SDS011;1536;51.098;6.414;2023-05-10T01:02:42;8.13;;;7.30;;
3052;SDS011;1536;51.098;6.414;2023-05-10T01:05:10;9.43;;;7.27;;
3052;SDS011;1536;51.098;6.414;2023-05-10T01:07:37;11.83;;;8.40;;
3052;SDS011;1536;51.098;6.414;2023-05-10T01:10:04;9.10;;;7.93;;
3052;SDS011;1536;51.098;6.414;2023-05-10T01:12:31;13.30;;;9.30;;
3052;SDS011;1536;51.098;6.414;2023-05-10T01:14:58;11.70;;;9.50;;
3052;SDS011;1536;51.098;6.414;2023-05-10T01:17:28;12.40;;;10.03;;
3052;SDS011;1536;51.098;6.414;2023-05-10T01:19:56;12.90;;;10.57;;
3052;SDS011;1536;51.098;6.414;2023-05-10T01:22:29;10.70;;;9.60;;
3052;SDS011;1536;51.098;6.414;2023-05-10T01:28:33;12.10;;;9.67;;
3052;SDS011;1536;51.098;6.414;2023-05-10T01:31:27;13.60;;;11.07;;
3052;SDS011;1536;51.098;6.414;2023-05-10T01:34:07;16.50;;;10.40;;
3052;SDS011;1536;51.098;6.414;2023-05-10T01:36:39;10.47;;;9.20;;
3052;SDS011;1536;51.098;6.414;2023-05-10T01:39:11;12.63;;;10.90;;
3052;SDS011;1536;51.098;6.414;2023-05-10T01:41:45;11.90;;;10.70;;
3052;SDS011;1536;51.098;6.414;2023-05-10T01:44:16;10.00;;;8.87;;
3052;SDS011;1536;51.098;6.414;2023-05-10T01:46:58;9.40;;;8.37;;
3052;SDS011;1536;51.098;6.414;2023-05-10T01:49:34;9.40;;;8.37;;
3052;SDS011;1536;51.098;6.414;2023-05-10T01:52:08;9.37;;;7.80;;
3052;SDS011;1536;51.098;6.414;2023-05-10T01:54:38;8.80;;;7.23;;
3052;SDS011;1536;51.098;6.414;2023-05-10T01:57:07;8.00;;;7.20;;
3052;SDS011;1536;51.098;6.414;2023-05-10T01:59:37;7.53;;;6.73;;
3052;SDS011;1536;51.098;6.414;2023-05-10T02:02:06;8.10;;;7.23;;
3052;SDS011;1536;51.098;6.414;2023-05-10T02:04:38;10.13;;;7.60;;
3052;SDS011;1536;51.098;6.414;2023-05-10T02:07:05;10.10;;;7.77;;
3052;SDS011;1536;51.098;6.414;2023-05-10T02:09:33;8.80;;;7.87;;
3052;SDS011;1536;51.098;6.414;2023-05-10T02:12:01;11.03;;;8.10;;
3052;SDS011;1536;51.098;6.414;2023-05-10T02:14:30;8.60;;;7.70;;
3052;SDS011;1536;51.098;6.414;2023-05-10T02:17:01;11.13;;;7.83;;
3052;SDS011;1536;51.098;6.414;2023-05-10T02:19:30;8.00;;;7.20;;
3052;SDS011;1536;51.098;6.414;2023-05-10T02:21:59;10.13;;;8.70;;
3052;SDS011;1536;51.098;6.414;2023-05-10T02:24:27;9.93;;;8.00;;
3052;SDS011;1536;51.098;6.414;2023-05-10T02:26:55;8.33;;;7.40;;
3052;SDS011;1536;51.098;6.414;2023-05-10T02:29:22;11.83;;;7.83;;
3052;SDS011;1536;51.098;6.414;2023-05-10T02:31:51;9.50;;;8.57;;
3052;SDS011;1536;51.098;6.414;2023-05-10T02:34:20;9.30;;;8.30;;
3052;SDS011;1536;51.098;6.414;2023-05-10T02:36:48;11.30;;;9.23;;
3052;SDS011;1536;51.098;6.414;2023-05-10T02:39:18;15.33;;;11.13;;
3052;SDS011;1536;51.098;6.414;2023-05-10T02:41:45;12.00;;;10.20;;
3052;SDS011;1536;51.098;6.414;2023-05-10T02:44:15;12.47;;;10.70;;
3052;SDS011;1536;51.098;6.414;2023-05-10T02:46:44;12.10;;;9.80;;
3052;SDS011;1536;51.098;6.414;2023-05-10T02:49:12;16.03;;;11.97;;
3052;SDS011;1536;51.098;6.414;2023-05-10T02:51:40;13.40;;;12.00;;
3052;SDS011;1536;51.098;6.414;2023-05-10T02:54:11;14.37;;;11.57;;
3052;SDS011;1536;51.098;6.414;2023-05-10T02:56:46;17.67;;;12.40;;
3052;SDS011;1536;51.098;6.414;2023-05-10T02:59:16;15.83;;;12.97;;
3052;SDS011;1536;51.098;6.414;2023-05-10T03:01:43;14.60;;;12.93;;
3052;SDS011;1536;51.098;6.414;2023-05-10T03:04:10;17.77;;;12.80;;
3052;SDS011;1536;51.098;6.414;2023-05-10T03:06:36;23.07;;;14.47;;
3052;SDS011;1536;51.098;6.414;2023-05-10T03:09:03;31.73;;;14.10;;
3052;SDS011;1536;51.098;6.414;2023-05-10T03:11:37;19.00;;;14.23;;
3052;SDS011;1536;51.098;6.414;2023-05-10T03:14:16;18.80;;;13.97;;
3052;SDS011;1536;51.098;6.414;2023-05-10T03:16:55;19.23;;;15.67;;
3052;SDS011;1536;51.098;6.414;2023-05-10T03:19:27;16.73;;;14.80;;
3052;SDS011;1536;51.098;6.414;2023-05-10T03:21:59;22.10;;;15.10;;
3052;SDS011;1536;51.098;6.414;2023-05-10T03:24:29;21.83;;;17.37;;
3052;SDS011;1536;51.098;6.414;2023-05-10T03:26:57;22.20;;;17.60;;
3052;SDS011;1536;51.098;6.414;2023-05-10T03:29:29;22.00;;;16.90;;
3052;SDS011;1536;51.098;6.414;2023-05-10T03:31:57;27.30;;;19.00;;
3052;SDS011;1536;51.098;6.414;2023-05-10T03:34:24;21.80;;;18.60;;
3052;SDS011;1536;51.098;6.414;2023-05-10T03:36:50;21.57;;;17.47;;
3052;SDS011;1536;51.098;6.414;2023-05-10T03:39:17;23.27;;;18.03;;
3052;SDS011;1536;51.098;6.414;2023-05-10T03:41:45;21.63;;;17.23;;
3052;SDS011;1536;51.098;6.414;2023-05-10T03:44:11;20.90;;;16.40;;
3052;SDS011;1536;51.098;6.414;2023-05-10T03:46:39;18.77;;;15.97;;
3052;SDS011;1536;51.098;6.414;2023-05-10T03:49:06;20.77;;;16.50;;
3052;SDS011;1536;51.098;6.414;2023-05-10T03:51:33;17.23;;;14.77;;
3052;SDS011;1536;51.098;6.414;2023-05-10T03:53:59;15.97;;;14.10;;
3052;SDS011;1536;51.098;6.414;2023-05-10T03:56:26;15.93;;;14.23;;
3052;SDS011;1536;51.098;6.414;2023-05-10T03:58:53;14.43;;;12.97;;
3052;SDS011;1536;51.098;6.414;2023-05-10T04:01:19;16.40;;;13.43;;
3052;SDS011;1536;51.098;6.414;2023-05-10T04:03:47;15.23;;;11.90;;
3052;SDS011;1536;51.098;6.414;2023-05-10T04:06:14;15.63;;;12.70;;
3052;SDS011;1536;51.098;6.414;2023-05-10T04:08:41;20.40;;;12.80;;
3052;SDS011;1536;51.098;6.414;2023-05-10T04:11:08;14.47;;;11.20;;
3052;SDS011;1536;51.098;6.414;2023-05-10T04:13:36;14.17;;;11.63;;
3052;SDS011;1536;51.098;6.414;2023-05-10T04:16:03;18.27;;;10.97;;
3052;SDS011;1536;51.098;6.414;2023-05-10T04:18:30;15.90;;;10.13;;
3052;SDS011;1536;51.098;6.414;2023-05-10T04:20:59;16.97;;;11.00;;
3052;SDS011;1536;51.098;6.414;2023-05-10T04:23:26;12.97;;;11.50;;
3052;SDS011;1536;51.098;6.414;2023-05-10T04:25:52;13.00;;;11.00;;
3052;SDS011;1536;51.098;6.414;2023-05-10T04:28:25;14.80;;;11.43;;
3052;SDS011;1536;51.098;6.414;2023-05-10T04:30:52;14.57;;;10.57;;
3052;SDS011;1536;51.098;6.414;2023-05-10T04:33:18;12.73;;;10.83;;
3052;SDS011;1536;51.098;6.414;2023-05-10T04:35:45;20.57;;;13.20;;
3052;SDS011;1536;51.098;6.414;2023-05-10T04:38:13;15.47;;;11.27;;
3052;SDS011;1536;51.098;6.414;2023-05-10T04:40:40;18.13;;;12.90;;
3052;SDS011;1536;51.098;6.414;2023-05-10T04:43:07;16.63;;;12.10;;
3052;SDS011;1536;51.098;6.414;2023-05-10T04:45:33;13.87;;;12.00;;
3052;SDS011;1536;51.098;6.414;2023-05-10T04:48:00;13.93;;;11.17;;
3052;SDS011;1536;51.098;6.414;2023-05-10T04:50:27;18.17;;;13.00;;
3052;SDS011;1536;51.098;6.414;2023-05-10T04:52:53;16.40;;;12.07;;
3052;SDS011;1536;51.098;6.414;2023-05-10T04:55:21;17.73;;;12.23;;
3052;SDS011;1536;51.098;6.414;2023-05-10T04:57:48;17.33;;;12.70;;
3052;SDS011;1536;51.098;6.414;2023-05-10T05:00:15;16.13;;;13.27;;
3052;SDS011;1536;51.098;6.414;2023-05-10T05:02:42;17.07;;;12.53;;
3052;SDS011;1536;51.098;6.414;2023-05-10T05:05:10;14.73;;;12.57;;
3052;SDS011;1536;51.098;6.414;2023-05-10T05:07:37;21.77;;;15.20;;
3052;SDS011;1536;51.098;6.414;2023-05-10T05:10:05;18.10;;;13.87;;
3052;SDS011;1536;51.098;6.414;2023-05-10T05:12:34;24.93;;;14.30;;
3052;SDS011;1536;51.098;6.414;2023-05-10T05:15:01;21.70;;;13.63;;
3052;SDS011;1536;51.098;6.414;2023-05-10T05:17:29;22.20;;;13.40;;
3052;SDS011;1536;51.098;6.414;2023-05-10T05:19:56;19.83;;;13.10;;
3052;SDS011;1536;51.098;6.414;2023-05-10T05:22:23;19.27;;;14.27;;
3052;SDS011;1536;51.098;6.414;2023-05-10T05:24:52;23.43;;;13.70;;
3052;SDS011;1536;51.098;6.414;2023-05-10T05:27:19;16.53;;;13.43;;
3052;SDS011;1536;51.098;6.414;2023-05-10T05:29:48;18.17;;;13.23;;
3052;SDS011;1536;51.098;6.414;2023-05-10T05:32:15;16.57;;;13.50;;
3052;SDS011;1536;51.098;6.414;2023-05-10T05:34:42;18.17;;;13.80;;
3052;SDS011;1536;51.098;6.414;2023-05-10T05:37:12;20.50;;;15.43;;
3052;SDS011;1536;51.098;6.414;2023-05-10T05:39:40;19.13;;;14.67;;
3052;SDS011;1536;51.098;6.414;2023-05-10T05:42:07;17.50;;;13.53;;
3052;SDS011;1536;51.098;6.414;2023-05-10T05:44:34;18.40;;;13.90;;
3052;SDS011;1536;51.098;6.414;2023-05-10T05:47:02;16.23;;;12.53;;
3052;SDS011;1536;51.098;6.414;2023-05-10T05:49:29;25.17;;;14.10;;
3052;SDS011;1536;51.098;6.414;2023-05-10T05:51:58;21.03;;;13.70;;
3052;SDS011;1536;51.098;6.414;2023-05-10T05:54:25;17.70;;;13.27;;
3052;SDS011;1536;51.098;6.414;2023-05-10T05:56:53;19.10;;;13.70;;
3052;SDS011;1536;51.098;6.414;2023-05-10T05:59:20;19.50;;;13.10;;
3052;SDS011;1536;51.098;6.414;2023-05-10T06:01:46;18.80;;;12.90;;
3052;SDS011;1536;51.098;6.414;2023-05-10T06:04:14;21.20;;;14.37;;
3052;SDS011;1536;51.098;6.414;2023-05-10T06:06:41;18.10;;;13.60;;
3052;SDS011;1536;51.098;6.414;2023-05-10T06:09:08;17.30;;;13.30;;
3052;SDS011;1536;51.098;6.414;2023-05-10T06:11:35;21.10;;;13.53;;
3052;SDS011;1536;51.098;6.414;2023-05-10T06:14:02;24.20;;;16.23;;
3052;SDS011;1536;51.098;6.414;2023-05-10T06:16:31;18.50;;;14.63;;
3052;SDS011;1536;51.098;6.414;2023-05-10T06:18:58;24.30;;;14.93;;
3052;SDS011;1536;51.098;6.414;2023-05-10T06:21:26;31.53;;;15.70;;
3052;SDS011;1536;51.098;6.414;2023-05-10T06:23:53;27.20;;;14.70;;
3052;SDS011;1536;51.098;6.414;2023-05-10T06:26:20;20.20;;;14.40;;
3052;SDS011;1536;51.098;6.414;2023-05-10T06:28:46;22.20;;;16.27;;
3052;SDS011;1536;51.098;6.414;2023-05-10T06:31:13;24.33;;;15.30;;
3052;SDS011;1536;51.098;6.414;2023-05-10T06:33:40;20.33;;;14.50;;
3052;SDS011;1536;51.098;6.414;2023-05-10T06:36:07;21.43;;;14.80;;
3052;SDS011;1536;51.098;6.414;2023-05-10T06:38:35;23.27;;;16.03;;
3052;SDS011;1536;51.098;6.414;2023-05-10T06:41:02;20.53;;;15.30;;
3052;SDS011;1536;51.098;6.414;2023-05-10T06:43:29;16.83;;;15.03;;
3052;SDS011;1536;51.098;6.414;2023-05-10T06:45:55;21.77;;;16.13;;
3052;SDS011;1536;51.098;6.414;2023-05-10T06:48:22;25.50;;;17.27;;
3052;SDS011;1536;51.098;6.414;2023-05-10T06:50:49;26.40;;;17.57;;
3052;SDS011;1536;51.098;6.414;2023-05-10T06:53:15;24.87;;;16.37;;
3052;SDS011;1536;51.098;6.414;2023-05-10T06:55:44;24.00;;;16.60;;
3052;SDS011;1536;51.098;6.414;2023-05-10T06:58:10;18.17;;;14.90;;
3052;SDS011;1536;51.098;6.414;2023-05-10T07:00:37;20.37;;;16.60;;
3052;SDS011;1536;51.098;6.414;2023-05-10T07:03:05;23.63;;;16.60;;
3052;SDS011;1536;51.098;6.414;2023-05-10T07:05:32;24.17;;;16.80;;
3052;SDS011;1536;51.098;6.414;2023-05-10T07:07:58;23.90;;;17.17;;
3052;SDS011;1536;51.098;6.414;2023-05-10T07:10:25;23.37;;;16.80;;
3052;SDS011;1536;51.098;6.414;2023-05-10T07:12:53;28.27;;;17.90;;
3052;SDS011;1536;51.098;6.414;2023-05-10T07:15:20;24.23;;;16.57;;
3052;SDS011;1536;51.098;6.414;2023-05-10T07:17:47;24.57;;;17.53;;
3052;SDS011;1536;51.098;6.414;2023-05-10T07:20:14;25.23;;;17.47;;
3052;SDS011;1536;51.098;6.414;2023-05-10T07:22:41;27.57;;;18.57;;
3052;SDS011;1536;51.098;6.414;2023-05-10T07:25:07;27.50;;;19.03;;
3052;SDS011;1536;51.098;6.414;2023-05-10T07:27:34;26.77;;;18.13;;
3052;SDS011;1536;51.098;6.414;2023-05-10T07:30:03;33.90;;;19.23;;
3052;SDS011;1536;51.098;6.414;2023-05-10T07:32:30;34.70;;;19.73;;
3052;SDS011;1536;51.098;6.414;2023-05-10T07:34:56;31.90;;;20.70;;
3052;SDS011;1536;51.098;6.414;2023-05-10T07:37:23;30.13;;;20.83;;
3052;SDS011;1536;51.098;6.414;2023-05-10T07:39:50;32.17;;;21.80;;
3052;SDS011;1536;51.098;6.414;2023-05-10T07:42:16;32.37;;;22.00;;
3052;SDS011;1536;51.098;6.414;2023-05-10T07:44:43;32.70;;;22.20;;
3052;SDS011;1536;51.098;6.414;2023-05-10T07:47:11;34.40;;;20.27;;
3052;SDS011;1536;51.098;6.414;2023-05-10T07:49:38;29.87;;;21.30;;
3052;SDS011;1536;51.098;6.414;2023-05-10T07:52:05;30.77;;;20.77;;
3052;SDS011;1536;51.098;6.414;2023-05-10T07:54:31;33.00;;;23.43;;
3052;SDS011;1536;51.098;6.414;2023-05-10T07:56:59;30.00;;;20.10;;
3052;SDS011;1536;51.098;6.414;2023-05-10T07:59:26;28.80;;;21.90;;
3052;SDS011;1536;51.098;6.414;2023-05-10T08:01:53;31.13;;;21.70;;
3052;SDS011;1536;51.098;6.414;2023-05-10T08:04:20;31.97;;;20.03;;
3052;SDS011;1536;51.098;6.414;2023-05-10T08:06:47;31.50;;;22.40;;
3052;SDS011;1536;51.098;6.414;2023-05-10T08:09:14;27.80;;;19.80;;
3052;SDS011;1536;51.098;6.414;2023-05-10T08:11:42;32.23;;;20.60;;
3052;SDS011;1536;51.098;6.414;2023-05-10T08:14:09;32.87;;;22.10;;
3052;SDS011;1536;51.098;6.414;2023-05-10T08:16:36;31.40;;;20.83;;
3052;SDS011;1536;51.098;6.414;2023-05-10T08:19:02;27.80;;;20.13;;
3052;SDS011;1536;51.098;6.414;2023-05-10T08:21:30;33.17;;;23.40;;
3052;SDS011;1536;51.098;6.414;2023-05-10T08:23:57;29.50;;;21.57;;
3052;SDS011;1536;51.098;6.414;2023-05-10T08:26:24;30.73;;;20.90;;
3052;SDS011;1536;51.098;6.414;2023-05-10T08:28:50;31.73;;;21.63;;
3052;SDS011;1536;51.098;6.414;2023-05-10T08:31:17;33.00;;;20.53;;
3052;SDS011;1536;51.098;6.414;2023-05-10T08:33:44;31.33;;;22.37;;
3052;SDS011;1536;51.098;6.414;2023-05-10T08:36:11;29.63;;;21.00;;
3052;SDS011;1536;51.098;6.414;2023-05-10T08:38:40;31.23;;;21.03;;
3052;SDS011;1536;51.098;6.414;2023-05-10T08:41:07;28.27;;;19.30;;
3052;SDS011;1536;51.098;6.414;2023-05-10T08:43:33;31.37;;;20.57;;
3052;SDS011;1536;51.098;6.414;2023-05-10T08:46:02;28.30;;;21.97;;
3052;SDS011;1536;51.098;6.414;2023-05-10T08:48:32;26.90;;;18.37;;
3052;SDS011;1536;51.098;6.414;2023-05-10T08:51:00;29.13;;;18.33;;
3052;SDS011;1536;51.098;6.414;2023-05-10T08:53:29;22.63;;;17.60;;
3052;SDS011;1536;51.098;6.414;2023-05-10T08:56:00;25.43;;;19.17;;
3052;SDS011;1536;51.098;6.414;2023-05-10T08:58:27;23.57;;;16.17;;
3052;SDS011;1536;51.098;6.414;2023-05-10T09:00:54;26.33;;;17.20;;
3052;SDS011;1536;51.098;6.414;2023-05-10T09:03:21;21.10;;;16.20;;
3052;SDS011;1536;51.098;6.414;2023-05-10T09:05:48;20.17;;;15.30;;
3052;SDS011;1536;51.098;6.414;2023-05-10T09:08:15;21.30;;;15.57;;
3052;SDS011;1536;51.098;6.414;2023-05-10T09:10:43;23.00;;;14.93;;
3052;SDS011;1536;51.098;6.414;2023-05-10T09:13:13;24.87;;;17.87;;
3052;SDS011;1536;51.098;6.414;2023-05-10T09:15:41;26.30;;;17.07;;
3052;SDS011;1536;51.098;6.414;2023-05-10T09:18:08;26.27;;;17.47;;
3052;SDS011;1536;51.098;6.414;2023-05-10T09:20:34;24.50;;;18.23;;
3052;SDS011;1536;51.098;6.414;2023-05-10T09:23:01;21.70;;;15.90;;
3052;SDS011;1536;51.098;6.414;2023-05-10T09:25:28;24.50;;;17.33;;
3052;SDS011;1536;51.098;6.414;2023-05-10T09:27:54;22.67;;;17.57;;
3052;SDS011;1536;51.098;6.414;2023-05-10T09:30:26;19.73;;;15.97;;
3052;SDS011;1536;51.098;6.414;2023-05-10T09:32:54;25.07;;;17.67;;
3052;SDS011;1536;51.098;6.414;2023-05-10T09:35:22;23.73;;;17.47;;
3052;SDS011;1536;51.098;6.414;2023-05-10T09:37:51;20.30;;;15.10;;
3052;SDS011;1536;51.098;6.414;2023-05-10T09:40:20;22.13;;;14.27;;
3052;SDS011;1536;51.098;6.414;2023-05-10T09:42:51;17.10;;;12.70;;
3052;SDS011;1536;51.098;6.414;2023-05-10T09:45:18;17.40;;;12.93;;
3052;SDS011;1536;51.098;6.414;2023-05-10T09:47:46;18.23;;;13.03;;
3052;SDS011;1536;51.098;6.414;2023-05-10T09:50:13;16.30;;;13.00;;
3052;SDS011;1536;51.098;6.414;2023-05-10T09:52:45;15.73;;;12.60;;
3052;SDS011;1536;51.098;6.414;2023-05-10T09:55:14;16.40;;;13.40;;
3052;SDS011;1536;51.098;6.414;2023-05-10T09:57:41;16.83;;;12.20;;
3052;SDS011;1536;51.098;6.414;2023-05-10T10:00:08;17.03;;;13.07;;
3052;SDS011;1536;51.098;6.414;2023-05-10T10:02:36;15.43;;;12.70;;
3052;SDS011;1536;51.098;6.414;2023-05-10T10:05:05;16.87;;;12.73;;
3052;SDS011;1536;51.098;6.414;2023-05-10T10:07:33;17.67;;;13.70;;
3052;SDS011;1536;51.098;6.414;2023-05-10T10:10:00;19.57;;;14.77;;
3052;SDS011;1536;51.098;6.414;2023-05-10T10:12:28;17.40;;;13.00;;
3052;SDS011;1536;51.098;6.414;2023-05-10T10:14:55;16.57;;;13.50;;
3052;SDS011;1536;51.098;6.414;2023-05-10T10:17:23;15.27;;;13.00;;
3052;SDS011;1536;51.098;6.414;2023-05-10T10:19:53;14.23;;;11.67;;
3052;SDS011;1536;51.098;6.414;2023-05-10T10:22:22;16.40;;;11.90;;
3052;SDS011;1536;51.098;6.414;2023-05-10T10:24:49;15.40;;;12.07;;
3052;SDS011;1536;51.098;6.414;2023-05-10T10:27:19;17.00;;;11.97;;
3052;SDS011;1536;51.098;6.414;2023-05-10T10:29:52;16.23;;;11.10;;
3052;SDS011;1536;51.098;6.414;2023-05-10T10:32:29;14.50;;;11.90;;
3052;SDS011;1536;51.098;6.414;2023-05-10T10:35:08;20.53;;;13.13;;
3052;SDS011;1536;51.098;6.414;2023-05-10T10:37:43;16.63;;;13.40;;
3052;SDS011;1536;51.098;6.414;2023-05-10T10:42:54;14.60;;;11.30;;
3052;SDS011;1536;51.098;6.414;2023-05-10T10:45:21;14.00;;;11.87;;
3052;SDS011;1536;51.098;6.414;2023-05-10T10:47:49;14.60;;;11.90;;
3052;SDS011;1536;51.098;6.414;2023-05-10T10:50:42;12.40;;;10.50;;
3052;SDS011;1536;51.098;6.414;2023-05-10T10:53:11;12.30;;;9.67;;
3052;SDS011;1536;51.098;6.414;2023-05-10T10:55:44;13.10;;;10.80;;
3052;SDS011;1536;51.098;6.414;2023-05-10T10:58:18;12.73;;;10.90;;
3052;SDS011;1536;51.098;6.414;2023-05-10T11:01:08;14.87;;;11.37;;
3052;SDS011;1536;51.098;6.414;2023-05-10T11:03:39;11.90;;;9.63;;
3052;SDS011;1536;51.098;6.414;2023-05-10T11:06:07;12.83;;;9.60;;
3052;SDS011;1536;51.098;6.414;2023-05-10T11:08:41;12.07;;;9.70;;
3052;SDS011;1536;51.098;6.414;2023-05-10T11:11:09;11.73;;;9.40;;
3052;SDS011;1536;51.098;6.414;2023-05-10T11:13:42;11.70;;;9.90;;
3052;SDS011;1536;51.098;6.414;2023-05-10T11:16:10;10.87;;;8.80;;
3052;SDS011;1536;51.098;6.414;2023-05-10T11:18:57;13.03;;;9.70;;
3052;SDS011;1536;51.098;6.414;2023-05-10T11:21:26;10.27;;;8.70;;
3052;SDS011;1536;51.098;6.414;2023-05-10T11:23:54;13.80;;;10.30;;
3052;SDS011;1536;51.098;6.414;2023-05-10T11:26:22;11.83;;;9.97;;
3052;SDS011;1536;51.098;6.414;2023-05-10T11:28:51;10.60;;;9.10;;
3052;SDS011;1536;51.098;6.414;2023-05-10T11:31:20;11.17;;;9.50;;
3052;SDS011;1536;51.098;6.414;2023-05-10T11:33:48;14.00;;;9.87;;
3052;SDS011;1536;51.098;6.414;2023-05-10T11:36:16;9.70;;;8.70;;
3052;SDS011;1536;51.098;6.414;2023-05-10T11:38:44;11.27;;;9.40;;
3052;SDS011;1536;51.098;6.414;2023-05-10T11:41:12;9.60;;;8.60;;
3052;SDS011;1536;51.098;6.414;2023-05-10T11:43:39;7.73;;;6.67;;
3052;SDS011;1536;51.098;6.414;2023-05-10T11:46:07;9.27;;;7.70;;
3052;SDS011;1536;51.098;6.414;2023-05-10T11:48:35;8.70;;;7.43;;
3052;SDS011;1536;51.098;6.414;2023-05-10T11:51:02;7.80;;;6.50;;
3052;SDS011;1536;51.098;6.414;2023-05-10T11:53:29;11.20;;;7.50;;
3052;SDS011;1536;51.098;6.414;2023-05-10T11:56:02;10.10;;;8.07;;
3052;SDS011;1536;51.098;6.414;2023-05-10T11:58:34;9.00;;;7.30;;
3052;SDS011;1536;51.098;6.414;2023-05-10T12:01:01;10.30;;;7.57;;
3052;SDS011;1536;51.098;6.414;2023-05-10T12:03:28;8.30;;;7.20;;
3052;SDS011;1536;51.098;6.414;2023-05-10T12:05:55;6.77;;;6.07;;
3052;SDS011;1536;51.098;6.414;2023-05-10T12:08:24;10.23;;;8.60;;
3052;SDS011;1536;51.098;6.414;2023-05-10T12:10:52;9.80;;;6.70;;
3052;SDS011;1536;51.098;6.414;2023-05-10T12:13:20;7.67;;;6.67;;
3052;SDS011;1536;51.098;6.414;2023-05-10T12:15:48;7.47;;;6.67;;
3052;SDS011;1536;51.098;6.414;2023-05-10T12:18:15;7.20;;;6.50;;
3052;SDS011;1536;51.098;6.414;2023-05-10T12:20:51;9.03;;;7.37;;
3052;SDS011;1536;51.098;6.414;2023-05-10T12:23:18;7.37;;;6.63;;
3052;SDS011;1536;51.098;6.414;2023-05-10T12:25:46;8.80;;;6.73;;
3052;SDS011;1536;51.098;6.414;2023-05-10T12:28:13;8.00;;;6.87;;
3052;SDS011;1536;51.098;6.414;2023-05-10T12:30:39;8.50;;;6.67;;
3052;SDS011;1536;51.098;6.414;2023-05-10T12:33:11;8.50;;;7.00;;
3052;SDS011;1536;51.098;6.414;2023-05-10T12:35:46;12.97;;;6.97;;
3052;SDS011;1536;51.098;6.414;2023-05-10T12:38:24;7.63;;;6.53;;
3052;SDS011;1536;51.098;6.414;2023-05-10T12:40:53;8.90;;;7.50;;
3052;SDS011;1536;51.098;6.414;2023-05-10T12:43:20;8.47;;;7.67;;
3052;SDS011;1536;51.098;6.414;2023-05-10T12:45:47;7.90;;;7.10;;
3052;SDS011;1536;51.098;6.414;2023-05-10T12:48:15;10.43;;;8.03;;
3052;SDS011;1536;51.098;6.414;2023-05-10T12:50:41;7.90;;;7.10;;
3052;SDS011;1536;51.098;6.414;2023-05-10T12:53:08;8.17;;;7.07;;
3052;SDS011;1536;51.098;6.414;2023-05-10T12:55:35;8.43;;;7.47;;
3052;SDS011;1536;51.098;6.414;2023-05-10T12:58:01;8.73;;;7.40;;
3052;SDS011;1536;51.098;6.414;2023-05-10T13:00:28;9.73;;;8.00;;
3052;SDS011;1536;51.098;6.414;2023-05-10T13:02:55;7.80;;;7.00;;
3052;SDS011;1536;51.098;6.414;2023-05-10T13:05:23;7.93;;;6.83;;
3052;SDS011;1536;51.098;6.414;2023-05-10T13:07:50;7.93;;;6.90;;
3052;SDS011;1536;51.098;6.414;2023-05-10T13:10:17;8.53;;;6.60;;
3052;SDS011;1536;51.098;6.414;2023-05-10T13:12:44;13.60;;;7.80;;
3052;SDS011;1536;51.098;6.414;2023-05-10T13:15:11;8.50;;;7.30;;
3052;SDS011;1536;51.098;6.414;2023-05-10T13:17:38;7.80;;;6.67;;
3052;SDS011;1536;51.098;6.414;2023-05-10T13:20:06;7.03;;;5.40;;
3052;SDS011;1536;51.098;6.414;2023-05-10T13:22:34;5.63;;;5.10;;
3052;SDS011;1536;51.098;6.414;2023-05-10T13:25:01;6.57;;;5.43;;
3052;SDS011;1536;51.098;6.414;2023-05-10T13:27:28;6.23;;;4.50;;
3052;SDS011;1536;51.098;6.414;2023-05-10T13:29:54;5.40;;;4.90;;
3052;SDS011;1536;51.098;6.414;2023-05-10T13:32:21;5.80;;;5.10;;
3052;SDS011;1536;51.098;6.414;2023-05-10T13:34:48;6.50;;;5.10;;
3052;SDS011;1536;51.098;6.414;2023-05-10T13:37:15;5.80;;;4.90;;
3052;SDS011;1536;51.098;6.414;2023-05-10T13:39:43;6.20;;;5.40;;
3052;SDS011;1536;51.098;6.414;2023-05-10T13:42:10;6.57;;;5.13;;
3052;SDS011;1536;51.098;6.414;2023-05-10T13:44:36;6.43;;;4.37;;
3052;SDS011;1536;51.098;6.414;2023-05-10T13:47:03;4.80;;;4.30;;
3052;SDS011;1536;51.098;6.414;2023-05-10T13:49:30;7.67;;;5.20;;
3052;SDS011;1536;51.098;6.414;2023-05-10T13:51:57;5.27;;;4.77;;
3052;SDS011;1536;51.098;6.414;2023-05-10T13:54:24;7.30;;;6.50;;
3052;SDS011;1536;51.098;6.414;2023-05-10T13:56:55;10.57;;;5.60;;
3052;SDS011;1536;51.098;6.414;2023-05-10T13:59:22;6.93;;;5.80;;
3052;SDS011;1536;51.098;6.414;2023-05-10T14:01:49;8.60;;;5.00;;
3052;SDS011;1536;51.098;6.414;2023-05-10T14:04:16;7.07;;;5.50;;
3052;SDS011;1536;51.098;6.414;2023-05-10T14:06:42;7.90;;;7.10;;
3052;SDS011;1536;51.098;6.414;2023-05-10T14:09:09;8.30;;;6.57;;
3052;SDS011;1536;51.098;6.414;2023-05-10T14:11:36;7.47;;;6.50;;
3052;SDS011;1536;51.098;6.414;2023-05-10T14:14:07;8.07;;;6.90;;
3052;SDS011;1536;51.098;6.414;2023-05-10T14:16:37;8.03;;;6.57;;
3052;SDS011;1536;51.098;6.414;2023-05-10T14:19:09;7.60;;;6.50;;
3052;SDS011;1536;51.098;6.414;2023-05-10T14:21:36;7.53;;;5.83;;
3052;SDS011;1536;51.098;6.414;2023-05-10T14:24:04;9.63;;;7.50;;
3052;SDS011;1536;51.098;6.414;2023-05-10T14:26:33;8.60;;;7.80;;
3052;SDS011;1536;51.098;6.414;2023-05-10T14:29:00;8.27;;;6.60;;
3052;SDS011;1536;51.098;6.414;2023-05-10T14:31:29;9.63;;;6.10;;
3052;SDS011;1536;51.098;6.414;2023-05-10T14:33:56;7.87;;;6.07;;
3052;SDS011;1536;51.098;6.414;2023-05-10T14:36:24;7.07;;;6.37;;
3052;SDS011;1536;51.098;6.414;2023-05-10T14:38:51;9.27;;;7.50;;
3052;SDS011;1536;51.098;6.414;2023-05-10T14:41:18;8.37;;;6.37;;
3052;SDS011;1536;51.098;6.414;2023-05-10T14:43:45;6.47;;;5.87;;
3052;SDS011;1536;51.098;6.414;2023-05-10T14:46:12;5.97;;;4.83;;
3052;SDS011;1536;51.098;6.414;2023-05-10T14:48:42;6.20;;;5.40;;
3052;SDS011;1536;51.098;6.414;2023-05-10T14:51:08;7.03;;;5.83;;
3052;SDS011;1536;51.098;6.414;2023-05-10T14:53:37;5.70;;;4.50;;
3052;SDS011;1536;51.098;6.414;2023-05-10T14:56:04;8.90;;;5.50;;
3052;SDS011;1536;51.098;6.414;2023-05-10T14:58:32;5.90;;;4.73;;
3052;SDS011;1536;51.098;6.414;2023-05-10T15:01:00;6.90;;;5.70;;
3052;SDS011;1536;51.098;6.414;2023-05-10T15:03:28;5.30;;;4.80;;
3052;SDS011;1536;51.098;6.414;2023-05-10T15:05:57;6.60;;;4.87;;
3052;SDS011;1536;51.098;6.414;2023-05-10T15:08:24;5.60;;;5.00;;
3052;SDS011;1536;51.098;6.414;2023-05-10T15:10:52;5.20;;;3.90;;